Flight Track Log - Related Links

Times and Time Zones

All times are in EDT time to prevent confusion due to time zone crossing. See the ASA603 flight status page for this flight to view local times or setup timezone preferences in your user account.

Time Position Orientation Groundspeed Altitude Reporting Facility
EDT Latitude Longitude Course Direction KTS MPH feet Rate Location/Type
Thu 10:05:56 AM 36.0753 -115.1153 88° East 170 196 3,400  Level Los Angeles Center
Thu 10:06:51 AM 36.0769 -115.0533 88° East 204 235 5,800 2,757 Climbing Los Angeles Center
Thu 10:07:10 AM 36.0756 -115.0294 94° East 197 227 6,800 1,075 Climbing Los Angeles Center
Thu 10:07:58 AM 36.0681 -114.9633 98° East 254 292 7,000 936 Climbing Los Angeles Center
Thu 10:08:59 AM 36.0006 -114.9219 154° Southeast 286 329 8,500 1,918 Climbing Los Angeles Center
Thu 10:10:00 AM 35.9167 -114.9631 202° Southwest 324 373 10,900 2,289 Climbing Los Angeles Center
Thu 10:10:15 AM 35.9019 -114.9703 202° Southwest 312 359 11,400 2,656 Climbing Los Angeles Center
Thu 10:11:01 AM 35.8644 -115.0494 240° Southwest 351 404 13,600 2,806 Climbing Los Angeles Center
Thu 10:11:17 AM 35.8658 -115.0706 275° West 345 397 14,300 3,000 Climbing Los Angeles Center
Thu 10:12:19 AM 35.8717 -115.1939 273° West 353 406 17,500 2,390 Climbing Los Angeles Center
Thu 10:13:20 AM 35.8756 -115.3189 272° West 358 412 19,200 2,146 Climbing Los Angeles Center
Thu 10:14:22 AM 35.8794 -115.4467 272° West 365 420 21,900 2,419 Climbing Los Angeles Center
Thu 10:15:24 AM 35.8833 -115.5814 272° West 380 437 24,200 2,371 Climbing Los Angeles Center
Thu 10:16:26 AM 35.8892 -115.7467 273° West 396 456 26,800 2,244 Climbing Los Angeles Center
Thu 10:17:27 AM 35.9306 -115.8706 292° West 400 460 28,800 1,756 Climbing Los Angeles Center
Thu 10:18:29 AM 36.0031 -115.9692 312° West 406 467 30,400 1,452 Climbing Los Angeles Center
Thu 10:19:31 AM 36.0903 -116.0897 312° West 417 480 31,800 1,355 Climbing Los Angeles Center
Thu 10:20:33 AM 36.1706 -116.1992 312° West 426 490 33,200 1,366 Climbing Los Angeles Center
Thu 10:21:34 AM 36.2397 -116.2928 313° West 428 493 34,600 1,561 Climbing Los Angeles Center
Thu 10:22:36 AM 36.3336 -116.4236 312° West 425 489 36,400 1,597 Climbing Los Angeles Center
Thu 10:23:38 AM 36.4106 -116.5300 312° West 418 481 37,900 774 Climbing Los Angeles Center
Thu 10:24:40 AM 36.4867 -116.6369 312° West 415 478 38,000 48 Climbing Los Angeles Center
Thu 10:25:42 AM 36.5608 -116.7392 312° West 415 478 38,000  Level Los Angeles Center
Thu 10:26:44 AM 36.6778 -116.8333 327° Northwest 420 483 38,000  Level Los Angeles Center
Thu 10:27:46 AM 36.7600 -116.8953 329° Northwest 417 480 38,000  Level Los Angeles Center
Thu 10:28:47 AM 36.8750 -116.9836 328° Northwest 414 476 38,000  Level Los Angeles Center
Thu 10:29:36 AM 36.9539 -117.0444 328° Northwest 416 479 38,000  Level Oakland Center
Thu 10:30:38 AM 37.0517 -117.1214 328° Northwest 414 476 38,000  Level Oakland Center
Thu 10:31:39 AM 37.1508 -117.1983 328° Northwest 416 479 38,000  Level Oakland Center
Thu 10:32:40 AM 37.2489 -117.2736 329° Northwest 414 476 38,000  Level Oakland Center
Thu 10:33:41 AM 37.3442 -117.3511 327° Northwest 407 468 38,000  Level Oakland Center
Thu 10:34:43 AM 37.4372 -117.4372 324° Northwest 412 474 38,000  Level Oakland Center
Thu 10:35:44 AM 37.5300 -117.5225 324° Northwest 411 473 38,000  Level Oakland Center
Thu 10:36:45 AM 37.6233 -117.6067 324° Northwest 410 472 38,000  Level Oakland Center
Thu 10:37:47 AM 37.7161 -117.6911 324° Northwest 409 471 38,000  Level Oakland Center
Thu 10:38:48 AM 37.8264 -117.7936 324° Northwest 407 468 38,000  Level Oakland Center
Thu 10:39:49 AM 37.9183 -117.8775 324° Northwest 405 466 38,000  Level Oakland Center
Thu 10:40:51 AM 38.0108 -117.9617 324° Northwest 406 467 38,000  Level Oakland Center
Thu 10:41:52 AM 38.1011 -118.0472 323° Northwest 404 465 38,000  Level Oakland Center
Thu 10:42:53 AM 38.1803 -118.1203 324° Northwest 403 464 38,000  Level Oakland Center
Thu 10:43:55 AM 38.2881 -118.2211 324° Northwest 400 460 38,000  Level Oakland Center
Thu 10:44:56 AM 38.3775 -118.3044 324° Northwest 399 459 38,000  Level Oakland Center
Thu 10:45:57 AM 38.4683 -118.3894 324° Northwest 402 463 38,000  Level Oakland Center
Thu 10:46:58 AM 38.5572 -118.4747 323° Northwest 399 459 38,000  Level Oakland Center
Thu 10:48:00 AM 38.6475 -118.5586 324° Northwest 401 461 38,000  Level Oakland Center
Thu 10:49:01 AM 38.7381 -118.6447 323° Northwest 405 466 38,000  Level Oakland Center
Thu 10:50:02 AM 38.8297 -118.7325 323° Northwest 408 470 38,000  Level Oakland Center
Thu 10:51:04 AM 38.9211 -118.8200 323° Northwest 410 472 38,000  Level Oakland Center
Thu 10:52:05 AM 39.0122 -118.9078 323° Northwest 407 468 38,000  Level Oakland Center
Thu 10:53:06 AM 39.1047 -118.9969 323° Northwest 411 473 38,000  Level Oakland Center
Thu 10:54:08 AM 39.2081 -119.0950 324° Northwest 409 471 38,000  Level Oakland Center
Thu 10:55:09 AM 39.3019 -119.1475 337° Northwest 410 472 38,000  Level Oakland Center
Thu 10:56:10 AM 39.4094 -119.1989 340° North 409 471 38,000  Level Oakland Center
Thu 10:57:11 AM 39.5386 -119.2606 340° North 409 471 38,000  Level Oakland Center
Thu 10:58:13 AM 39.6447 -119.3125 339° North 406 467 38,000  Level Oakland Center
Thu 10:59:14 AM 39.7508 -119.3642 339° North 405 466 38,000  Level Oakland Center
Thu 11:00:15 AM 39.8581 -119.4156 340° North 408 470 38,000  Level Oakland Center
Thu 11:01:16 AM 39.9631 -119.4686 339° North 405 466 38,000  Level Oakland Center
Thu 11:02:18 AM 40.0708 -119.5203 340° North 411 473 38,000  Level Oakland Center
Thu 11:03:19 AM 40.1781 -119.5725 340° North 411 473 38,000  Level Oakland Center
Thu 11:04:20 AM 40.2844 -119.6258 339° North 410 472 38,000  Level Oakland Center
Thu 11:05:21 AM 40.3931 -119.6783 340° North 413 475 38,000  Level Oakland Center
Thu 11:06:23 AM 40.4983 -119.7333 338° Northwest 408 470 38,000  Level Oakland Center
Thu 11:07:24 AM 40.6075 -119.7889 339° North 407 468 38,000  Level Oakland Center
Thu 11:08:25 AM 40.7144 -119.8436 339° North 410 472 38,000  Level Oakland Center
Thu 11:09:27 AM 40.8211 -119.8981 339° North 411 473 38,000  Level Oakland Center
Thu 11:09:52 AM 40.8864 -119.9281 341° North 410 472 38,000  Level Seattle Center
Thu 11:10:53 AM 40.9936 -119.9819 339° North 410 472 38,000  Level Seattle Center
Thu 11:11:54 AM 41.1000 -120.0350 339° North 408 470 38,000  Level Seattle Center
Thu 11:12:31 AM 41.1628 -120.0689 338° Northwest 408 470 38,000  Level Oakland Center
Thu 11:12:55 AM 41.2058 -120.0906 339° North 410 472 38,000  Level Seattle Center
Thu 11:13:56 AM 41.3111 -120.1442 339° North 406 467 38,000  Level Seattle Center
Thu 11:14:57 AM 41.4158 -120.1981 339° North 404 465 38,000  Level Seattle Center
Thu 11:15:58 AM 41.5214 -120.2522 339° North 405 466 38,000  Level Seattle Center
Thu 11:16:59 AM 41.6289 -120.3061 339° North 410 472 38,000  Level Seattle Center
Thu 11:18:00 AM 41.7369 -120.3600 340° North 413 475 38,000  Level Seattle Center
Thu 11:19:00 AM 41.8408 -120.4178 337° Northwest 407 468 38,000  Level Seattle Center
Thu 11:20:01 AM 41.9469 -120.4728 339° North 410 472 38,000  Level Seattle Center
Thu 11:21:02 AM 42.0564 -120.5289 339° North 418 481 38,000  Level Seattle Center
Thu 11:22:03 AM 42.1644 -120.5850 339° North 418 481 38,000  Level Seattle Center
Thu 11:23:04 AM 42.2936 -120.6539 338° Northwest 418 481 38,000  Level Seattle Center
Thu 11:24:05 AM 42.3981 -120.7081 339° North 409 471 38,000  Level Seattle Center
Thu 11:25:06 AM 42.5019 -120.7639 338° Northwest 404 465 38,000  Level Seattle Center
Thu 11:26:07 AM 42.6047 -120.8183 339° North 401 461 38,000  Level Seattle Center
Thu 11:27:08 AM 42.7078 -120.8742 338° Northwest 400 460 38,000  Level Seattle Center
Thu 11:28:08 AM 42.8078 -120.9264 339° North 392 451 38,000  Level Seattle Center
Thu 11:29:09 AM 42.9086 -120.9800 339° North 392 451 38,000  Level Seattle Center
Thu 11:30:10 AM 43.0097 -121.0339 339° North 391 450 38,000  Level Seattle Center
Thu 11:31:11 AM 43.1119 -121.0903 338° Northwest 396 456 38,000  Level Seattle Center
Thu 11:32:12 AM 43.2131 -121.1467 338° Northwest 395 455 38,000  Level Seattle Center
Thu 11:33:13 AM 43.3136 -121.1997 339° North 390 449 38,000  Level Seattle Center
Thu 11:34:14 AM 43.4136 -121.2525 339° North 387 445 38,000  Level Seattle Center
Thu 11:35:15 AM 43.5136 -121.3092 338° Northwest 388 447 38,000  Level Seattle Center
Thu 11:36:15 AM 43.6342 -121.3792 337° Northwest 392 451 38,000  Level Seattle Center
Thu 11:37:16 AM 43.7369 -121.4339 339° North 396 456 38,000  Level Seattle Center
Thu 11:38:17 AM 43.8258 -121.4847 338° Northwest 401 461 38,000  Level Seattle Center
Thu 11:39:18 AM 43.9311 -121.5403 339° North 404 465 38,000  Level Seattle Center
Thu 11:40:19 AM 44.0519 -121.6094 338° Northwest 392 451 38,000  Level Seattle Center
Thu 11:41:20 AM 44.1469 -121.6628 338° Northwest 373 429 38,000  Level Seattle Center
Thu 11:42:21 AM 44.2419 -121.7158 338° Northwest 368 423 38,000  Level Seattle Center
Thu 11:43:22 AM 44.3342 -121.7683 338° Northwest 361 415 38,000  Level Seattle Center
Thu 11:44:22 AM 44.4267 -121.8197 338° Northwest 358 412 38,000  Level Seattle Center
Thu 11:45:23 AM 44.5164 -121.8708 338° Northwest 350 403 38,000  Level Seattle Center
Thu 11:46:24 AM 44.6003 -121.9186 338° Northwest 355 409 38,000  Level Seattle Center
Thu 11:47:25 AM 44.7153 -121.9847 338° Northwest 369 425 38,000  Level Seattle Center
Thu 11:48:26 AM 44.8117 -122.0417 337° Northwest 376 433 38,000  Level Seattle Center
Thu 11:49:27 AM 44.9028 -122.0944 338° Northwest 376 433 38,000  Level Seattle Center
Thu 11:50:28 AM 44.9986 -122.1503 338° Northwest 375 432 38,000  Level Seattle Center
Thu 11:51:29 AM 45.0964 -122.2072 338° Northwest 380 437 38,000  Level Seattle Center
Thu 11:52:30 AM 45.1939 -122.2631 338° Northwest 379 436 38,000  Level Seattle Center
Thu 11:53:31 AM 45.2908 -122.3197 338° Northwest 380 437 38,000 -344 Level Seattle Center
Thu 11:54:32 AM 45.3883 -122.3778 337° Northwest 380 437 37,300 -836 Descending Seattle Center
Thu 11:55:33 AM 45.4844 -122.4336 338° Northwest 377 434 36,300 -934 Descending Seattle Center
Thu 11:56:34 AM 45.5822 -122.4908 338° Northwest 381 438 35,400 -1,033 Descending Seattle Center
Thu 11:57:35 AM 45.7008 -122.5628 337° Northwest 386 444 34,200 -1,033 Descending Seattle Center
Thu 11:58:36 AM 45.8075 -122.6078 344° North 401 461 33,300 -1,721 Descending Seattle Center
Thu 11:59:37 AM 45.9192 -122.6342 351° North 408 470 30,700 -2,311 Descending Seattle Center
Thu 12:00:38 PM 46.0211 -122.6561 351° North 399 459 28,600 -2,066 Descending Seattle Center
Thu 12:01:39 PM 46.1250 -122.6828 350° North 385 443 26,500 -2,066 Descending Seattle Center
Thu 12:02:40 PM 46.2275 -122.7003 353° North 376 433 24,400 -2,213 Descending Seattle Center
Thu 12:03:41 PM 46.3458 -122.7203 353° North 362 417 22,000 -2,066 Descending Seattle Center
Thu 12:04:42 PM 46.4436 -122.7161 North 356 410 20,200 -1,770 Descending Seattle Center
Thu 12:05:43 PM 46.5406 -122.7156 360° North 353 406 18,400 -1,672 Descending Seattle Center
Thu 12:06:44 PM 46.6342 -122.7097 North 342 394 16,800 -1,823 Descending Seattle Center
Thu 12:07:02 PM 46.6703 -122.7094 360° North 338 389 16,000 -2,262 Descending Seattle Center
Thu 12:07:45 PM 46.7347 -122.7067 North 339 390 14,500 -2,164 Descending Seattle Center
Thu 12:08:03 PM 46.7622 -122.7053 North 336 387 13,800 -1,672 Descending Seattle Center
Thu 12:08:46 PM 46.8250 -122.6947 North 329 379 12,800 -1,612 Descending Seattle Center
Thu 12:09:10 PM 46.8553 -122.6522 44° Northeast 322 371 12,000 -1,869 Descending Seattle Center
Thu 12:09:47 PM 46.8956 -122.5972 43° Northeast 319 367 10,900 -1,377 Descending Seattle Center
Thu 12:10:11 PM 46.9181 -122.5664 43° Northeast 311 358 10,600 -885 Descending Seattle Center
Thu 12:10:48 PM 46.9556 -122.5153 43° Northeast 300 345 10,000 -1,082 Descending Seattle Center
Thu 12:11:12 PM 46.9783 -122.4886 39° Northeast 281 323 9,500 -1,377 Descending Seattle Center
Thu 12:11:49 PM 47.0131 -122.4428 42° Northeast 277 319 8,600 -1,200 Descending Seattle Center
Thu 12:12:12 PM 47.0372 -122.4239 28° Northeast 263 303 8,300 -984 Descending Seattle Center
Thu 12:12:50 PM 47.0758 -122.3894 31° Northeast 264 304 7,600 -1,082 Descending Seattle Center
Thu 12:13:13 PM 47.0972 -122.3717 30° Northeast 253 291 7,200 -1,180 Descending Seattle Center
Thu 12:13:51 PM 47.1408 -122.3369 28° Northeast 252 290 6,400 -982 Descending Seattle Center
Thu 12:14:08 PM 47.1553 -122.3367 North 245 282 6,300 -1,180 Descending Seattle Center
Thu 12:14:52 PM 47.2053 -122.3306 North 230 265 5,200 -1,475 Descending Seattle Center
Thu 12:15:09 PM 47.2203 -122.3306 360° North 224 258 4,800 -885 Descending Seattle Center
Thu 12:15:53 PM 47.2672 -122.3222 North 225 259 4,300 -787 Descending Seattle Center
Thu 12:16:10 PM 47.2825 -122.3222 360° North 212 244 4,000 -1,082 Descending Seattle Center
Thu 12:16:54 PM 47.3172 -122.3147 North 186 214 3,200 -1,164 Descending Seattle Center
Thu 12:17:17 PM 47.3339 -122.3139 North 163 188 2,700 -1,180 Descending Seattle Center
Thu 12:17:55 PM 47.3653 -122.3122 North 163 188 2,000 -1,082 Descending Seattle Center
Thu 12:18:18 PM 47.3761 -122.3136 355° North 146 168 1,600 -885 Descending Seattle Center
Thu 12:18:56 PM 47.4036 -122.3114 North 143 165 1,100 -800 Descending Seattle Center
Thu 12:19:18 PM 47.4175 -122.3103 North 133 153 800 -689 Descending Seattle Center
Thu 12:19:57 PM 47.4394 -122.3114 358° North 132 152 400 -300 Descending Seattle Center
Thu 12:20:58 PM 47.4697 -122.3108 North 132 152 300 -98 Descending Seattle Center
Thu 12:22:00 PM 47.4499 -122.3118 180° South  Level Estimated

Login

Don't have an account? Register now (free) for customized features, flight alerts, and more!